createdAt,value
2022-11-02T00:00:30.296Z,82.91
2022-11-02T00:02:58.347Z,83.09
2022-11-02T00:05:27.849Z,83.25
2022-11-02T00:07:56.783Z,83.39
2022-11-02T00:10:25.630Z,83.05
2022-11-02T00:12:54.024Z,82.54
2022-11-02T00:15:23.227Z,83.00
2022-11-02T00:17:53.811Z,83.01
2022-11-02T00:20:22.197Z,83.54
2022-11-02T00:22:54.758Z,83.04
2022-11-02T00:25:24.819Z,82.37
2022-11-02T00:27:53.043Z,82.67
2022-11-02T00:30:21.243Z,83.78
2022-11-02T00:32:49.179Z,83.62
2022-11-02T00:35:17.117Z,83.73
2022-11-02T00:37:44.939Z,82.94
2022-11-02T00:40:14.480Z,83.35
2022-11-02T00:42:42.350Z,83.66
2022-11-02T00:45:10.867Z,84.00
2022-11-02T00:47:38.966Z,83.84
2022-11-02T00:50:07.768Z,84.31
2022-11-02T00:52:39.872Z,83.44
2022-11-02T00:55:10.992Z,84.49
2022-11-02T00:57:44.222Z,84.53
2022-11-02T01:00:13.006Z,84.09
2022-11-02T01:02:40.968Z,84.07
2022-11-02T01:05:11.613Z,84.00
2022-11-02T01:07:40.294Z,84.79
2022-11-02T01:10:10.116Z,84.45
2022-11-02T01:12:38.639Z,83.53
2022-11-02T01:15:10.350Z,84.50
2022-11-02T01:17:39.200Z,84.02
2022-11-02T01:20:08.122Z,84.12
2022-11-02T01:22:35.988Z,83.47
2022-11-02T01:25:04.044Z,83.47
2022-11-02T01:27:32.032Z,82.86
2022-11-02T01:29:59.881Z,83.61
2022-11-02T01:32:31.483Z,84.37
2022-11-02T01:34:59.358Z,85.10
2022-11-02T01:37:27.178Z,85.14
2022-11-02T01:39:54.978Z,84.62
2022-11-02T01:42:24.772Z,84.87
2022-11-02T01:44:52.878Z,84.47
2022-11-02T01:47:25.073Z,83.81
2022-11-02T01:49:59.065Z,84.36
2022-11-02T01:52:31.810Z,84.84
2022-11-02T01:55:04.008Z,85.29
2022-11-02T01:57:34.552Z,84.29
2022-11-02T02:00:07.127Z,85.02
2022-11-02T02:02:46.380Z,84.57
2022-11-02T02:05:17.609Z,84.51
2022-11-02T02:07:46.850Z,85.95
2022-11-02T02:10:15.522Z,86.22
2022-11-02T02:12:44.743Z,86.49
2022-11-02T02:15:16.715Z,87.18
2022-11-02T02:17:50.692Z,87.30
2022-11-02T02:20:32.905Z,86.78
2022-11-02T02:23:27.854Z,86.20
2022-11-02T02:26:22.291Z,86.27
2022-11-02T02:28:54.978Z,85.87
2022-11-02T02:31:29.900Z,87.07
2022-11-02T02:34:05.417Z,86.42
2022-11-02T02:36:38.741Z,86.55
2022-11-02T02:39:11.990Z,86.28
2022-11-02T02:41:41.943Z,86.46
2022-11-02T02:44:14.830Z,85.32
2022-11-02T02:46:49.046Z,85.70
2022-11-02T02:49:23.512Z,85.33
2022-11-02T02:51:52.712Z,85.53
2022-11-02T02:54:25.299Z,85.54
2022-11-02T02:56:57.972Z,86.85
2022-11-02T02:59:30.808Z,85.75
2022-11-02T03:02:00.862Z,86.79
2022-11-02T03:04:28.760Z,86.28
2022-11-02T03:06:59.518Z,86.73
2022-11-02T03:09:32.982Z,87.30
2022-11-02T03:12:16.319Z,86.79
2022-11-02T03:14:58.261Z,87.79
2022-11-02T03:17:34.126Z,86.16
2022-11-02T03:20:12.558Z,85.99
2022-11-02T03:22:50.761Z,85.50
2022-11-02T03:25:23.521Z,84.86
2022-11-02T03:27:56.508Z,85.45
2022-11-02T03:30:29.076Z,84.57
2022-11-02T03:33:06.279Z,84.71
2022-11-02T03:35:42.132Z,84.54
2022-11-02T03:38:15.666Z,84.54
2022-11-02T03:40:46.886Z,84.32
2022-11-02T03:43:16.475Z,83.99
2022-11-02T03:45:49.659Z,84.17
2022-11-02T03:48:20.262Z,83.74
2022-11-02T03:50:51.940Z,83.36
2022-11-02T03:53:27.918Z,84.42
2022-11-02T03:56:03.611Z,83.25
2022-11-02T03:58:31.583Z,83.02
2022-11-02T04:01:03.758Z,84.40
2022-11-02T04:03:34.870Z,84.26
2022-11-02T04:06:02.803Z,83.65
2022-11-02T04:08:37.543Z,84.27
2022-11-02T04:11:26.488Z,83.66
2022-11-02T04:14:18.436Z,83.01
2022-11-02T04:16:48.272Z,84.17
2022-11-02T04:19:28.106Z,83.49
2022-11-02T04:22:18.036Z,82.64
2022-11-02T04:25:07.089Z,82.50
2022-11-02T04:27:35.967Z,82.32
2022-11-02T04:30:05.558Z,82.88
2022-11-02T04:32:57.507Z,82.98
2022-11-02T04:35:27.642Z,83.18
2022-11-02T04:38:13.262Z,82.94
2022-11-02T04:40:41.735Z,81.96
2022-11-02T04:43:10.289Z,82.94
2022-11-02T04:45:38.279Z,82.04
2022-11-02T04:48:09.383Z,82.08
2022-11-02T04:50:37.846Z,82.41
2022-11-02T04:53:08.187Z,82.93
2022-11-02T04:55:38.612Z,82.91
2022-11-02T04:58:06.850Z,81.57
2022-11-02T05:00:34.889Z,81.89
2022-11-02T05:03:05.701Z,81.98
2022-11-02T05:05:37.406Z,82.01
2022-11-02T05:08:06.509Z,81.83
2022-11-02T05:10:35.359Z,81.58
2022-11-02T05:13:03.245Z,81.62
2022-11-02T05:15:34.804Z,81.70
2022-11-02T05:18:07.149Z,81.60
2022-11-02T05:20:37.851Z,81.47
2022-11-02T05:23:06.735Z,82.90
2022-11-02T05:25:35.789Z,82.21
2022-11-02T05:28:03.587Z,81.80
2022-11-02T05:30:31.418Z,81.98
2022-11-02T05:32:59.365Z,82.48
2022-11-02T05:35:28.409Z,82.26
2022-11-02T05:37:57.614Z,81.69
2022-11-02T05:40:25.626Z,81.82
2022-11-02T05:43:00.188Z,82.44
2022-11-02T05:45:29.170Z,82.11
2022-11-02T05:47:57.064Z,81.88
2022-11-02T05:50:24.872Z,82.37
2022-11-02T05:52:53.941Z,81.96
2022-11-02T05:55:23.151Z,82.06
2022-11-02T05:57:54.332Z,82.09
2022-11-02T06:00:22.962Z,82.46
2022-11-02T06:02:56.289Z,81.64
2022-11-02T06:05:24.253Z,81.82
2022-11-02T06:07:52.728Z,82.28
2022-11-02T06:10:20.614Z,82.21
2022-11-02T06:12:55.640Z,82.16
2022-11-02T06:15:23.723Z,82.48
2022-11-02T06:17:52.602Z,82.08
2022-11-02T06:20:20.923Z,81.97
2022-11-02T06:22:49.193Z,81.74
2022-11-02T06:25:17.947Z,81.66
2022-11-02T06:27:55.039Z,82.38
2022-11-02T06:30:25.143Z,81.96
2022-11-02T06:32:54.494Z,82.78
2022-11-02T06:35:23.748Z,82.29
2022-11-02T06:37:51.751Z,82.30
2022-11-02T06:40:21.454Z,81.35
2022-11-02T06:43:15.320Z,82.14
2022-11-02T06:45:44.753Z,81.28
2022-11-02T06:48:12.522Z,81.93
2022-11-02T06:50:40.343Z,81.69
2022-11-02T06:53:08.496Z,81.22
2022-11-02T06:55:36.428Z,81.69
2022-11-02T06:58:05.631Z,81.70
2022-11-02T07:00:33.532Z,81.49
2022-11-02T07:03:02.546Z,81.25
2022-11-02T07:05:30.911Z,81.99
2022-11-02T07:07:58.849Z,81.75
2022-11-02T07:10:27.516Z,81.60
2022-11-02T07:12:56.560Z,81.81
2022-11-02T07:15:27.479Z,82.36
2022-11-02T07:17:55.561Z,82.40
2022-11-02T07:20:23.462Z,81.62
2022-11-02T07:22:55.404Z,82.11
2022-11-02T07:25:24.105Z,81.89
2022-11-02T07:27:52.118Z,82.72
2022-11-02T07:30:19.907Z,82.51
2022-11-02T07:32:49.525Z,82.09
2022-11-02T07:35:17.813Z,81.62
2022-11-02T07:37:45.710Z,82.01
2022-11-02T07:40:14.991Z,82.34
2022-11-02T07:42:46.679Z,81.76
2022-11-02T07:45:17.133Z,82.73
2022-11-02T07:47:45.296Z,83.01
2022-11-02T07:50:16.836Z,83.72
2022-11-02T07:52:46.016Z,84.10
2022-11-02T07:55:14.719Z,83.48
2022-11-02T07:57:43.661Z,83.93
2022-11-02T08:00:12.677Z,84.17
2022-11-02T08:02:40.545Z,83.46
2022-11-02T08:05:09.236Z,83.96
2022-11-02T08:07:38.421Z,84.11
2022-11-02T08:10:07.162Z,83.57
2022-11-02T08:12:37.532Z,83.62
2022-11-02T08:15:07.673Z,83.74
2022-11-02T08:17:36.176Z,83.66
2022-11-02T08:20:04.306Z,83.48
2022-11-02T08:22:32.129Z,82.54
2022-11-02T08:25:01.320Z,82.54
2022-11-02T08:27:29.276Z,82.43
2022-11-02T08:29:57.144Z,82.98
2022-11-02T08:32:25.541Z,82.22
2022-11-02T08:34:53.306Z,82.36
2022-11-02T08:37:21.136Z,81.97
2022-11-02T08:39:48.937Z,81.90
2022-11-02T08:42:18.330Z,81.61
2022-11-02T08:44:46.117Z,81.46
2022-11-02T08:47:15.079Z,81.41
2022-11-02T08:49:43.010Z,81.41
2022-11-02T08:52:10.806Z,81.18
2022-11-02T08:54:38.610Z,81.17
2022-11-02T08:57:06.424Z,81.32
2022-11-02T08:59:35.554Z,81.15
2022-11-02T09:02:03.443Z,81.48
2022-11-02T09:04:31.427Z,81.55
2022-11-02T09:06:59.277Z,81.27
2022-11-02T09:09:27.152Z,80.98
2022-11-02T09:11:54.961Z,81.17
2022-11-02T09:14:22.797Z,81.11
2022-11-02T09:16:51.990Z,81.00
2022-11-02T09:19:19.777Z,80.98
2022-11-02T09:21:49.726Z,81.09
2022-11-02T09:24:17.535Z,81.14
2022-11-02T09:26:45.371Z,80.78
2022-11-02T09:29:13.225Z,80.95
2022-11-02T09:31:41.097Z,81.02
2022-11-02T09:34:10.470Z,80.86
2022-11-02T09:36:38.323Z,80.83
2022-11-02T09:39:06.147Z,80.93
2022-11-02T09:41:38.366Z,80.74
2022-11-02T09:44:12.203Z,80.65
2022-11-02T09:46:42.783Z,80.59
2022-11-02T09:49:16.376Z,80.46
2022-11-02T09:51:47.651Z,80.40
2022-11-02T09:54:19.405Z,80.33
2022-11-02T09:56:48.338Z,80.26
2022-11-02T09:59:17.688Z,80.09
2022-11-02T10:01:55.585Z,80.11
2022-11-02T10:04:58.249Z,80.00
2022-11-02T10:07:39.395Z,79.98
2022-11-02T10:10:14.691Z,80.15
2022-11-02T10:12:52.346Z,79.98
2022-11-02T10:15:23.587Z,80.07
2022-11-02T10:17:56.882Z,79.85
2022-11-02T10:20:30.994Z,79.90
2022-11-02T10:23:04.305Z,79.87
2022-11-02T10:25:32.302Z,80.14
2022-11-02T10:28:06.042Z,80.00
2022-11-02T10:30:33.867Z,80.00
2022-11-02T10:33:01.792Z,80.12
2022-11-02T10:36:04.376Z,80.19
2022-11-02T10:38:40.676Z,80.58
2022-11-02T10:41:27.892Z,80.34
2022-11-02T10:44:10.980Z,80.02
2022-11-02T10:47:04.254Z,79.81
2022-11-02T10:49:57.467Z,79.91
2022-11-02T10:52:34.263Z,79.95
2022-11-02T10:55:02.139Z,79.52
2022-11-02T10:57:31.175Z,79.25
2022-11-02T11:00:25.247Z,79.50
2022-11-02T11:03:11.041Z,79.08
2022-11-02T11:05:55.818Z,78.97
2022-11-02T11:08:36.693Z,78.61
2022-11-02T11:11:12.511Z,78.88
2022-11-02T11:16:36.536Z,77.83
2022-11-02T11:21:54.534Z,77.74
2022-11-02T11:24:29.516Z,77.39
2022-11-02T11:27:06.455Z,76.80
2022-11-02T11:29:35.750Z,76.28
2022-11-02T11:32:04.410Z,75.58
2022-11-02T11:34:34.516Z,75.29
2022-11-02T11:37:07.094Z,74.18
2022-11-02T11:39:37.340Z,74.39
2022-11-02T11:42:06.257Z,74.28
2022-11-02T11:44:35.430Z,74.54
2022-11-02T11:47:04.467Z,73.61
2022-11-02T11:50:02.990Z,73.47
2022-11-02T11:52:31.585Z,73.43
2022-11-02T11:55:02.506Z,73.55
2022-11-02T11:57:32.982Z,73.36
2022-11-02T12:00:04.833Z,72.89
2022-11-02T12:02:40.932Z,71.91
2022-11-02T12:05:15.468Z,69.84
2022-11-02T12:08:18.259Z,68.81
2022-11-02T12:11:02.186Z,67.13
2022-11-02T12:13:52.775Z,64.64
2022-11-02T12:16:29.938Z,61.75
2022-11-02T12:19:16.493Z,60.68
2022-11-02T12:21:56.541Z,60.57
2022-11-02T12:24:43.933Z,60.17
2022-11-02T12:27:27.827Z,59.97
2022-11-02T12:30:14.502Z,60.11
2022-11-02T12:33:04.387Z,59.83
2022-11-02T12:35:59.545Z,58.35
2022-11-02T12:38:44.454Z,58.34
2022-11-02T12:41:15.538Z,57.87
2022-11-02T12:43:47.470Z,57.96
2022-11-02T12:46:28.199Z,58.40
2022-11-02T12:49:08.885Z,58.68
2022-11-02T12:51:41.667Z,58.50
2022-11-02T12:54:12.762Z,59.16
2022-11-02T12:56:47.289Z,59.54
2022-11-02T12:59:22.545Z,59.74
2022-11-02T13:01:54.088Z,59.43
2022-11-02T13:04:29.513Z,59.15
2022-11-02T13:07:04.247Z,59.57
2022-11-02T13:09:37.118Z,59.64
2022-11-02T13:12:09.460Z,59.88
2022-11-02T13:14:41.719Z,59.79
2022-11-02T13:17:15.868Z,59.46
2022-11-02T13:19:49.127Z,59.72
2022-11-02T13:22:21.059Z,59.03
2022-11-02T13:24:53.405Z,59.70
2022-11-02T13:27:36.882Z,59.61
2022-11-02T13:30:14.649Z,59.97
2022-11-02T13:32:46.493Z,59.37
2022-11-02T13:35:19.821Z,58.95
2022-11-02T13:37:52.610Z,58.60
2022-11-02T13:40:25.232Z,59.00
2022-11-02T13:43:39.019Z,58.67
2022-11-02T13:46:26.947Z,57.80
2022-11-02T13:49:00.165Z,58.24
2022-11-02T13:51:35.812Z,57.97
2022-11-02T13:54:12.621Z,57.48
2022-11-02T13:56:40.814Z,57.56
2022-11-02T13:59:10.291Z,57.79
2022-11-02T14:01:42.469Z,58.10
2022-11-02T14:04:13.455Z,58.43
2022-11-02T14:06:52.397Z,58.93
2022-11-02T14:09:32.025Z,58.97
2022-11-02T14:12:40.383Z,59.30
2022-11-02T14:15:42.428Z,59.58
2022-11-02T14:18:16.664Z,60.13
2022-11-02T14:20:47.458Z,59.16
2022-11-02T14:23:35.742Z,58.81
2022-11-02T14:26:03.556Z,59.22
2022-11-02T14:28:33.556Z,59.11
2022-11-02T14:31:41.035Z,59.16
2022-11-02T14:34:28.187Z,59.47
2022-11-02T14:37:12.675Z,59.84
2022-11-02T14:39:51.756Z,59.79
2022-11-02T14:42:37.876Z,59.97
2022-11-02T14:45:18.460Z,60.26
2022-11-02T14:47:46.425Z,60.25
2022-11-02T14:50:20.017Z,60.59
2022-11-02T14:53:00.634Z,60.67
2022-11-02T14:55:30.255Z,60.87
2022-11-02T14:58:01.606Z,61.31
2022-11-02T15:00:37.493Z,61.38
2022-11-02T15:03:08.854Z,62.30
2022-11-02T15:05:39.620Z,62.46
2022-11-02T15:08:09.786Z,62.48
2022-11-02T15:10:41.763Z,63.49
2022-11-02T15:13:47.791Z,63.80
2022-11-02T15:16:25.752Z,64.00
2022-11-02T15:18:55.583Z,64.40
2022-11-02T15:21:26.391Z,64.17
2022-11-02T15:24:15.557Z,64.51
2022-11-02T15:26:53.790Z,65.05
2022-11-02T15:29:34.352Z,65.34
2022-11-02T15:32:03.102Z,65.52
2022-11-02T15:34:36.469Z,65.83
2022-11-02T15:37:06.247Z,66.06
2022-11-02T15:39:34.548Z,66.94
2022-11-02T15:42:05.426Z,67.16
2022-11-02T15:45:05.403Z,67.10
2022-11-02T15:47:53.114Z,67.64
2022-11-02T15:50:31.210Z,68.02
2022-11-02T15:53:25.875Z,68.32
2022-11-02T15:56:09.888Z,68.48
2022-11-02T15:58:53.418Z,68.42
2022-11-02T16:01:22.887Z,68.75
2022-11-02T16:03:58.249Z,68.56
2022-11-02T16:06:27.887Z,69.11
2022-11-02T16:08:58.626Z,68.83
2022-11-02T16:11:26.964Z,68.85
2022-11-02T16:14:08.683Z,69.35
2022-11-02T16:16:48.168Z,69.35
2022-11-02T16:19:20.432Z,69.50
2022-11-02T16:21:48.904Z,69.37
2022-11-02T16:24:18.345Z,69.57
2022-11-02T16:26:47.441Z,69.60
2022-11-02T16:29:26.708Z,70.02
2022-11-02T16:31:54.583Z,70.09
2022-11-02T16:34:25.467Z,70.28
2022-11-02T16:36:53.525Z,70.12
2022-11-02T16:39:27.747Z,70.51
2022-11-02T16:41:57.502Z,70.54
2022-11-02T16:44:26.922Z,70.62
2022-11-02T16:46:58.320Z,70.71
2022-11-02T16:49:27.717Z,70.61
2022-11-02T16:51:57.811Z,70.95
2022-11-02T16:54:39.635Z,70.87
2022-11-02T16:57:13.788Z,71.19
2022-11-02T16:59:51.278Z,71.15
2022-11-02T17:02:20.390Z,71.29
2022-11-02T17:04:49.092Z,71.23
2022-11-02T17:07:21.959Z,71.61
2022-11-02T17:09:54.883Z,71.44
2022-11-02T17:12:29.542Z,71.87
2022-11-02T17:14:58.685Z,71.63
2022-11-02T17:17:38.172Z,71.95
2022-11-02T17:20:30.055Z,71.90
2022-11-02T17:23:00.458Z,71.93
2022-11-02T17:25:32.014Z,72.24
2022-11-02T17:28:01.682Z,72.26
2022-11-02T17:30:44.604Z,72.71
2022-11-02T17:33:28.423Z,72.63
2022-11-02T17:35:59.082Z,72.58
2022-11-02T17:38:28.293Z,73.20
2022-11-02T17:41:00.046Z,73.12
2022-11-02T17:43:27.499Z,73.00
2022-11-02T17:45:57.099Z,72.95
2022-11-02T17:48:25.474Z,72.88
2022-11-02T17:50:55.071Z,72.97
2022-11-02T17:53:23.934Z,73.07
2022-11-02T17:55:52.063Z,73.34
2022-11-02T17:58:21.198Z,73.28
2022-11-02T18:00:49.203Z,73.25
2022-11-02T18:03:22.332Z,73.29
2022-11-02T18:05:55.814Z,73.53
2022-11-02T18:08:25.184Z,73.38
2022-11-02T18:10:53.716Z,73.85
2022-11-02T18:13:24.621Z,73.68
2022-11-02T18:15:52.493Z,73.76
2022-11-02T18:18:20.264Z,74.10
2022-11-02T18:20:48.154Z,73.99
2022-11-02T18:23:19.487Z,74.19
2022-11-02T18:25:47.330Z,74.12
2022-11-02T18:28:15.213Z,74.00
2022-11-02T18:30:45.057Z,74.13
2022-11-02T18:33:14.153Z,74.25
2022-11-02T18:35:44.032Z,74.57
2022-11-02T18:38:11.962Z,74.48
2022-11-02T18:40:39.814Z,74.64
2022-11-02T18:43:07.962Z,74.70
2022-11-02T18:45:36.204Z,74.88
2022-11-02T18:48:05.754Z,75.00
2022-11-02T18:50:33.852Z,74.94
2022-11-02T18:53:01.691Z,74.87
2022-11-02T18:55:29.502Z,75.13
2022-11-02T18:57:57.281Z,75.05
2022-11-02T19:00:25.066Z,75.27
2022-11-02T19:02:52.894Z,75.01
2022-11-02T19:05:36.085Z,74.91
2022-11-02T19:08:21.726Z,75.15
2022-11-02T19:10:49.568Z,75.47
2022-11-02T19:13:17.402Z,75.51
2022-11-02T19:15:45.215Z,75.46
2022-11-02T19:18:12.993Z,75.60
2022-11-02T19:20:42.205Z,75.64
2022-11-02T19:23:10.714Z,76.30
2022-11-02T19:25:38.810Z,76.37
2022-11-02T19:28:06.954Z,76.33
2022-11-02T19:30:35.150Z,76.35
2022-11-02T19:33:03.389Z,76.93
2022-11-02T19:35:31.332Z,76.78
2022-11-02T19:38:00.477Z,76.78
2022-11-02T19:40:28.337Z,76.69
2022-11-02T19:42:56.116Z,76.27
2022-11-02T19:45:23.904Z,76.40
2022-11-02T19:47:51.826Z,76.46
2022-11-02T19:50:19.706Z,76.20
2022-11-02T19:52:49.020Z,76.45
2022-11-02T19:55:18.372Z,76.90
2022-11-02T19:57:46.154Z,76.04
2022-11-02T20:00:15.406Z,76.64
2022-11-02T20:02:43.270Z,77.06
2022-11-02T20:05:12.668Z,77.27
2022-11-02T20:07:40.459Z,77.27
2022-11-02T20:10:09.154Z,77.70
2022-11-02T20:12:38.673Z,78.65
2022-11-02T20:15:07.957Z,78.06
2022-11-02T20:17:52.125Z,79.00
2022-11-02T20:20:23.581Z,79.25
2022-11-02T20:22:51.722Z,79.69
2022-11-02T20:25:19.499Z,79.55
2022-11-02T20:27:48.664Z,79.46
2022-11-02T20:30:18.986Z,80.09
2022-11-02T20:32:46.963Z,81.03
2022-11-02T20:35:16.251Z,81.23
2022-11-02T20:37:44.088Z,80.60
2022-11-02T20:40:12.595Z,80.78
2022-11-02T20:42:40.464Z,80.96
2022-11-02T20:45:10.772Z,80.40
2022-11-02T20:47:39.264Z,80.57
2022-11-02T20:50:11.374Z,80.21
2022-11-02T20:52:40.689Z,79.79
2022-11-02T20:55:09.299Z,80.00
2022-11-02T20:57:37.733Z,79.46
2022-11-02T21:00:06.736Z,79.71
2022-11-02T21:02:35.936Z,79.97
2022-11-02T21:05:04.804Z,80.36
2022-11-02T21:07:32.618Z,81.10
2022-11-02T21:10:00.396Z,80.56
2022-11-02T21:12:45.904Z,81.07
2022-11-02T21:15:13.844Z,80.67
2022-11-02T21:17:43.096Z,81.22
2022-11-02T21:20:33.210Z,80.97
2022-11-02T21:23:00.628Z,81.19
2022-11-02T21:25:28.683Z,80.40
2022-11-02T21:27:56.576Z,80.39
2022-11-02T21:30:24.408Z,79.36
2022-11-02T21:32:54.507Z,79.42
2022-11-02T21:35:22.371Z,79.84
2022-11-02T21:37:50.366Z,79.55
2022-11-02T21:40:18.548Z,79.78
2022-11-02T21:42:46.316Z,79.47
2022-11-02T21:45:17.956Z,79.15
2022-11-02T21:47:46.326Z,78.98
2022-11-02T21:50:15.538Z,78.97
2022-11-02T21:52:45.227Z,78.67
2022-11-02T21:55:13.270Z,78.35
2022-11-02T21:57:41.072Z,78.95
2022-11-02T22:00:10.215Z,78.93
2022-11-02T22:02:39.519Z,79.18
2022-11-02T22:05:07.819Z,78.83
2022-11-02T22:07:56.946Z,79.11
2022-11-02T22:10:24.747Z,79.06
2022-11-02T22:13:09.840Z,79.17
2022-11-02T22:15:38.552Z,78.77
2022-11-02T22:18:06.512Z,79.04
2022-11-02T22:20:34.281Z,78.32
2022-11-02T22:23:03.624Z,79.42
2022-11-02T22:25:31.681Z,79.73
2022-11-02T22:27:59.495Z,80.06
2022-11-02T22:30:29.357Z,80.35
2022-11-02T22:32:57.145Z,81.47
2022-11-02T22:35:24.995Z,81.27
2022-11-02T22:38:10.591Z,82.48
2022-11-02T22:40:39.773Z,80.82
2022-11-02T22:43:07.862Z,80.92
2022-11-02T22:45:35.894Z,80.04
2022-11-02T22:48:03.687Z,80.13
2022-11-02T22:50:31.521Z,79.24
2022-11-02T22:52:59.310Z,79.93
2022-11-02T22:55:27.073Z,78.74
2022-11-02T22:57:59.760Z,78.99
2022-11-02T23:00:27.967Z,78.98
2022-11-02T23:02:55.730Z,78.76
2022-11-02T23:05:23.786Z,78.69
2022-11-02T23:07:51.570Z,78.32
2022-11-02T23:10:33.287Z,77.96
2022-11-02T23:13:02.488Z,78.68
2022-11-02T23:15:31.324Z,79.10
2022-11-02T23:17:59.114Z,79.21
2022-11-02T23:20:25.939Z,79.41
2022-11-02T23:23:10.990Z,79.61
2022-11-02T23:25:38.790Z,79.76
2022-11-02T23:28:25.594Z,79.73
2022-11-02T23:31:13.174Z,80.55
2022-11-02T23:33:43.829Z,80.21
2022-11-02T23:36:15.236Z,80.38
2022-11-02T23:39:02.000Z,79.24
2022-11-02T23:41:30.983Z,78.88
2022-11-02T23:44:12.547Z,78.51
2022-11-02T23:46:41.196Z,78.91
2022-11-02T23:49:08.998Z,78.10
2022-11-02T23:51:54.333Z,77.67
2022-11-02T23:54:40.053Z,78.05
2022-11-02T23:57:08.217Z,77.92
2022-11-02T23:59:37.382Z,77.06
